sensor_id;sensor_type;location;lat;lon;timestamp;P1;durP1;ratioP1;P2;durP2;ratioP2
17193;SDS011;8713;48.388;10.928;2024-03-02T09:30:18;3.72;;;2.00;;
17193;SDS011;8713;48.388;10.928;2024-03-02T09:31:47;2.60;;;2.00;;
17193;SDS011;8713;48.388;10.928;2024-03-02T09:33:18;2.90;;;2.10;;
17193;SDS011;8713;48.388;10.928;2024-03-02T09:34:48;4.28;;;1.90;;
17193;SDS011;8713;48.388;10.928;2024-03-02T09:36:21;2.05;;;1.67;;
17193;SDS011;8713;48.388;10.928;2024-03-02T09:37:51;3.63;;;1.70;;
17193;SDS011;8713;48.388;10.928;2024-03-02T09:39:20;2.88;;;2.10;;
17193;SDS011;8713;48.388;10.928;2024-03-02T09:40:50;2.10;;;1.58;;
17193;SDS011;8713;48.388;10.928;2024-03-02T09:42:20;2.83;;;1.80;;
17193;SDS011;8713;48.388;10.928;2024-03-02T09:43:50;2.58;;;1.88;;
17193;SDS011;8713;48.388;10.928;2024-03-02T09:45:22;2.63;;;1.80;;
17193;SDS011;8713;48.388;10.928;2024-03-02T09:46:53;2.88;;;1.83;;
17193;SDS011;8713;48.388;10.928;2024-03-02T09:48:22;2.55;;;1.90;;
17193;SDS011;8713;48.388;10.928;2024-03-02T09:49:52;4.00;;;1.95;;
17193;SDS011;8713;48.388;10.928;2024-03-02T09:51:22;2.28;;;1.60;;
17193;SDS011;8713;48.388;10.928;2024-03-02T09:52:52;2.60;;;1.98;;
17193;SDS011;8713;48.388;10.928;2024-03-02T09:54:23;2.20;;;1.80;;
17193;SDS011;8713;48.388;10.928;2024-03-02T09:55:53;4.57;;;2.15;;
17193;SDS011;8713;48.388;10.928;2024-03-02T09:57:22;2.88;;;2.05;;
17193;SDS011;8713;48.388;10.928;2024-03-02T09:58:52;3.25;;;2.08;;
17193;SDS011;8713;48.388;10.928;2024-03-02T10:00:22;2.97;;;2.00;;
17193;SDS011;8713;48.388;10.928;2024-03-02T10:02:01;2.10;;;1.70;;
17193;SDS011;8713;48.388;10.928;2024-03-02T10:03:31;2.75;;;1.60;;
17193;SDS011;8713;48.388;10.928;2024-03-02T10:05:03;3.22;;;1.70;;
17193;SDS011;8713;48.388;10.928;2024-03-02T10:06:33;3.47;;;1.60;;
17193;SDS011;8713;48.388;10.928;2024-03-02T10:08:02;2.88;;;1.80;;
17193;SDS011;8713;48.388;10.928;2024-03-02T10:09:32;2.53;;;1.85;;
17193;SDS011;8713;48.388;10.928;2024-03-02T10:11:02;2.88;;;1.95;;
17193;SDS011;8713;48.388;10.928;2024-03-02T10:12:32;2.20;;;1.60;;
17193;SDS011;8713;48.388;10.928;2024-03-02T10:14:08;3.97;;;1.92;;
17193;SDS011;8713;48.388;10.928;2024-03-02T10:15:40;3.10;;;2.00;;
17193;SDS011;8713;48.388;10.928;2024-03-02T10:17:11;3.45;;;1.90;;
17193;SDS011;8713;48.388;10.928;2024-03-02T10:18:42;2.83;;;1.90;;
17193;SDS011;8713;48.388;10.928;2024-03-02T10:20:20;3.67;;;1.85;;
17193;SDS011;8713;48.388;10.928;2024-03-02T10:21:55;3.92;;;2.15;;
17193;SDS011;8713;48.388;10.928;2024-03-02T10:23:27;2.60;;;1.80;;
17193;SDS011;8713;48.388;10.928;2024-03-02T10:24:56;3.35;;;2.03;;
17193;SDS011;8713;48.388;10.928;2024-03-02T10:26:26;2.55;;;1.95;;
17193;SDS011;8713;48.388;10.928;2024-03-02T10:27:57;3.00;;;2.30;;
17193;SDS011;8713;48.388;10.928;2024-03-02T10:29:29;2.20;;;1.60;;
17193;SDS011;8713;48.388;10.928;2024-03-02T10:30:58;3.05;;;2.10;;
17193;SDS011;8713;48.388;10.928;2024-03-02T10:32:28;4.60;;;1.70;;
17193;SDS011;8713;48.388;10.928;2024-03-02T10:33:58;2.45;;;1.90;;
17193;SDS011;8713;48.388;10.928;2024-03-02T10:35:28;2.60;;;2.00;;
17193;SDS011;8713;48.388;10.928;2024-03-02T10:36:59;2.33;;;1.90;;
17193;SDS011;8713;48.388;10.928;2024-03-02T10:38:29;2.47;;;1.90;;
17193;SDS011;8713;48.388;10.928;2024-03-02T10:40:04;2.33;;;1.75;;
17193;SDS011;8713;48.388;10.928;2024-03-02T10:41:35;2.83;;;1.95;;
17193;SDS011;8713;48.388;10.928;2024-03-02T10:43:06;3.08;;;1.90;;
17193;SDS011;8713;48.388;10.928;2024-03-02T10:44:36;2.60;;;2.08;;
17193;SDS011;8713;48.388;10.928;2024-03-02T10:46:06;3.45;;;2.17;;
17193;SDS011;8713;48.388;10.928;2024-03-02T10:47:36;4.32;;;2.42;;
17193;SDS011;8713;48.388;10.928;2024-03-02T10:49:07;2.90;;;2.03;;
17193;SDS011;8713;48.388;10.928;2024-03-02T10:50:37;2.90;;;2.15;;
17193;SDS011;8713;48.388;10.928;2024-03-02T10:52:06;3.03;;;2.22;;
17193;SDS011;8713;48.388;10.928;2024-03-02T10:53:37;3.25;;;2.15;;
17193;SDS011;8713;48.388;10.928;2024-03-02T10:55:07;4.03;;;2.10;;
17193;SDS011;8713;48.388;10.928;2024-03-02T10:56:39;3.35;;;2.40;;
17193;SDS011;8713;48.388;10.928;2024-03-02T10:58:10;3.72;;;2.47;;
17193;SDS011;8713;48.388;10.928;2024-03-02T10:59:56;2.85;;;2.38;;
17193;SDS011;8713;48.388;10.928;2024-03-02T11:01:26;4.93;;;2.40;;
17193;SDS011;8713;48.388;10.928;2024-03-02T11:02:57;4.22;;;2.60;;
17193;SDS011;8713;48.388;10.928;2024-03-02T11:04:31;3.55;;;2.35;;
17193;SDS011;8713;48.388;10.928;2024-03-02T11:06:01;4.68;;;2.70;;
17193;SDS011;8713;48.388;10.928;2024-03-02T11:07:35;6.40;;;2.92;;
17193;SDS011;8713;48.388;10.928;2024-03-02T11:09:07;4.28;;;3.10;;
17193;SDS011;8713;48.388;10.928;2024-03-02T11:10:51;6.15;;;3.15;;
17193;SDS011;8713;48.388;10.928;2024-03-02T11:12:28;6.35;;;2.50;;
17193;SDS011;8713;48.388;10.928;2024-03-02T11:13:59;5.78;;;2.78;;
17193;SDS011;8713;48.388;10.928;2024-03-02T11:15:37;4.32;;;2.38;;
17193;SDS011;8713;48.388;10.928;2024-03-02T11:17:10;5.40;;;3.22;;
17193;SDS011;8713;48.388;10.928;2024-03-02T11:18:42;5.80;;;3.08;;
17193;SDS011;8713;48.388;10.928;2024-03-02T11:20:12;4.05;;;2.75;;
17193;SDS011;8713;48.388;10.928;2024-03-02T11:21:42;8.70;;;3.05;;
17193;SDS011;8713;48.388;10.928;2024-03-02T11:23:13;7.38;;;2.80;;
17193;SDS011;8713;48.388;10.928;2024-03-02T11:24:49;4.85;;;3.20;;
17193;SDS011;8713;48.388;10.928;2024-03-02T11:26:21;6.15;;;3.25;;
17193;SDS011;8713;48.388;10.928;2024-03-02T11:31:04;6.50;;;4.22;;
17193;SDS011;8713;48.388;10.928;2024-03-02T11:32:34;5.68;;;3.55;;
17193;SDS011;8713;48.388;10.928;2024-03-02T11:36:03;4.75;;;3.28;;
17193;SDS011;8713;48.388;10.928;2024-03-02T11:37:35;5.70;;;3.80;;
17193;SDS011;8713;48.388;10.928;2024-03-02T11:39:06;6.88;;;3.40;;
17193;SDS011;8713;48.388;10.928;2024-03-02T11:40:36;4.80;;;3.33;;
17193;SDS011;8713;48.388;10.928;2024-03-02T11:42:09;6.38;;;3.65;;
17193;SDS011;8713;48.388;10.928;2024-03-02T11:43:43;5.35;;;3.35;;
17193;SDS011;8713;48.388;10.928;2024-03-02T11:45:16;5.25;;;3.55;;
17193;SDS011;8713;48.388;10.928;2024-03-02T11:47:20;5.53;;;3.35;;
17193;SDS011;8713;48.388;10.928;2024-03-02T11:48:44;4.82;;;2.78;;
17193;SDS011;8713;48.388;10.928;2024-03-02T11:50:15;7.03;;;3.80;;
17193;SDS011;8713;48.388;10.928;2024-03-02T11:51:50;5.93;;;3.85;;
17193;SDS011;8713;48.388;10.928;2024-03-02T11:53:29;5.43;;;3.67;;
17193;SDS011;8713;48.388;10.928;2024-03-02T11:55:01;6.50;;;3.95;;
17193;SDS011;8713;48.388;10.928;2024-03-02T11:56:32;5.80;;;3.53;;
17193;SDS011;8713;48.388;10.928;2024-03-02T11:58:03;5.82;;;4.50;;
17193;SDS011;8713;48.388;10.928;2024-03-02T11:59:33;7.75;;;5.30;;
17193;SDS011;8713;48.388;10.928;2024-03-02T12:01:03;6.65;;;4.55;;
17193;SDS011;8713;48.388;10.928;2024-03-02T12:02:32;10.27;;;4.97;;
17193;SDS011;8713;48.388;10.928;2024-03-02T12:04:01;7.45;;;4.68;;
17193;SDS011;8713;48.388;10.928;2024-03-02T12:05:32;7.82;;;5.00;;
17193;SDS011;8713;48.388;10.928;2024-03-02T12:07:04;9.60;;;5.03;;
17193;SDS011;8713;48.388;10.928;2024-03-02T12:08:33;7.85;;;4.97;;
17193;SDS011;8713;48.388;10.928;2024-03-02T12:10:04;8.90;;;5.25;;
17193;SDS011;8713;48.388;10.928;2024-03-02T12:11:34;8.13;;;5.30;;
17193;SDS011;8713;48.388;10.928;2024-03-02T12:13:04;10.35;;;5.50;;
17193;SDS011;8713;48.388;10.928;2024-03-02T12:14:37;9.95;;;5.90;;
17193;SDS011;8713;48.388;10.928;2024-03-02T12:16:07;9.57;;;6.13;;
17193;SDS011;8713;48.388;10.928;2024-03-02T12:17:37;9.00;;;5.97;;
17193;SDS011;8713;48.388;10.928;2024-03-02T12:19:07;11.50;;;6.47;;
17193;SDS011;8713;48.388;10.928;2024-03-02T12:20:36;12.35;;;5.57;;
17193;SDS011;8713;48.388;10.928;2024-03-02T12:22:06;8.65;;;5.57;;
17193;SDS011;8713;48.388;10.928;2024-03-02T12:23:35;10.18;;;6.22;;
17193;SDS011;8713;48.388;10.928;2024-03-02T12:25:05;10.30;;;5.63;;
17193;SDS011;8713;48.388;10.928;2024-03-02T12:26:35;10.00;;;5.70;;
17193;SDS011;8713;48.388;10.928;2024-03-02T12:28:04;11.60;;;6.88;;
17193;SDS011;8713;48.388;10.928;2024-03-02T12:29:35;13.52;;;7.43;;
17193;SDS011;8713;48.388;10.928;2024-03-02T12:31:04;12.80;;;6.90;;
17193;SDS011;8713;48.388;10.928;2024-03-02T12:32:33;11.38;;;6.78;;
17193;SDS011;8713;48.388;10.928;2024-03-02T12:34:03;11.63;;;6.40;;
17193;SDS011;8713;48.388;10.928;2024-03-02T12:35:33;11.50;;;6.00;;
17193;SDS011;8713;48.388;10.928;2024-03-02T12:37:02;9.48;;;5.53;;
17193;SDS011;8713;48.388;10.928;2024-03-02T12:38:32;12.93;;;6.50;;
17193;SDS011;8713;48.388;10.928;2024-03-02T12:40:02;11.38;;;6.45;;
17193;SDS011;8713;48.388;10.928;2024-03-02T12:41:32;11.30;;;6.47;;
17193;SDS011;8713;48.388;10.928;2024-03-02T12:43:02;12.63;;;7.03;;
17193;SDS011;8713;48.388;10.928;2024-03-02T12:44:31;12.27;;;7.28;;
17193;SDS011;8713;48.388;10.928;2024-03-02T12:46:01;11.02;;;7.10;;
17193;SDS011;8713;48.388;10.928;2024-03-02T12:47:31;12.55;;;6.47;;
17193;SDS011;8713;48.388;10.928;2024-03-02T12:49:11;15.68;;;7.72;;
17193;SDS011;8713;48.388;10.928;2024-03-02T12:50:43;10.10;;;5.72;;
17193;SDS011;8713;48.388;10.928;2024-03-02T12:52:13;8.90;;;5.22;;
17193;SDS011;8713;48.388;10.928;2024-03-02T12:53:43;11.05;;;6.40;;
17193;SDS011;8713;48.388;10.928;2024-03-02T12:55:12;9.90;;;6.03;;
17193;SDS011;8713;48.388;10.928;2024-03-02T12:56:42;12.07;;;6.22;;
17193;SDS011;8713;48.388;10.928;2024-03-02T12:58:22;12.18;;;5.93;;
17193;SDS011;8713;48.388;10.928;2024-03-02T12:59:51;11.45;;;6.40;;
17193;SDS011;8713;48.388;10.928;2024-03-02T13:01:21;10.70;;;5.97;;
17193;SDS011;8713;48.388;10.928;2024-03-02T13:02:50;9.82;;;4.90;;
17193;SDS011;8713;48.388;10.928;2024-03-02T13:04:27;12.52;;;6.53;;
17193;SDS011;8713;48.388;10.928;2024-03-02T13:05:58;12.93;;;7.38;;
17193;SDS011;8713;48.388;10.928;2024-03-02T13:07:28;11.00;;;6.47;;
17193;SDS011;8713;48.388;10.928;2024-03-02T13:08:58;9.93;;;5.88;;
17193;SDS011;8713;48.388;10.928;2024-03-02T13:10:27;11.68;;;6.97;;
17193;SDS011;8713;48.388;10.928;2024-03-02T13:11:57;10.48;;;5.88;;
17193;SDS011;8713;48.388;10.928;2024-03-02T13:13:30;12.00;;;6.35;;
17193;SDS011;8713;48.388;10.928;2024-03-02T13:15:00;10.27;;;6.00;;
17193;SDS011;8713;48.388;10.928;2024-03-02T13:16:37;10.38;;;5.53;;
17193;SDS011;8713;48.388;10.928;2024-03-02T13:18:11;14.07;;;6.00;;
17193;SDS011;8713;48.388;10.928;2024-03-02T13:19:53;10.60;;;5.95;;
17193;SDS011;8713;48.388;10.928;2024-03-02T13:21:26;12.55;;;6.43;;
17193;SDS011;8713;48.388;10.928;2024-03-02T13:22:56;13.15;;;7.15;;
17193;SDS011;8713;48.388;10.928;2024-03-02T13:24:26;9.30;;;5.45;;
17193;SDS011;8713;48.388;10.928;2024-03-02T13:25:58;9.00;;;5.30;;
17193;SDS011;8713;48.388;10.928;2024-03-02T13:27:28;9.07;;;5.25;;
17193;SDS011;8713;48.388;10.928;2024-03-02T13:28:57;10.43;;;5.88;;
17193;SDS011;8713;48.388;10.928;2024-03-02T13:30:27;10.63;;;6.15;;
17193;SDS011;8713;48.388;10.928;2024-03-02T13:31:57;12.95;;;6.78;;
17193;SDS011;8713;48.388;10.928;2024-03-02T13:33:27;12.10;;;6.03;;
17193;SDS011;8713;48.388;10.928;2024-03-02T13:34:57;10.25;;;6.63;;
17193;SDS011;8713;48.388;10.928;2024-03-02T13:36:26;15.07;;;7.50;;
17193;SDS011;8713;48.388;10.928;2024-03-02T13:37:55;12.05;;;6.70;;
17193;SDS011;8713;48.388;10.928;2024-03-02T13:39:25;11.73;;;6.50;;
17193;SDS011;8713;48.388;10.928;2024-03-02T13:40:55;11.63;;;6.80;;
17193;SDS011;8713;48.388;10.928;2024-03-02T13:42:25;14.82;;;8.90;;
17193;SDS011;8713;48.388;10.928;2024-03-02T13:43:54;12.55;;;7.22;;
17193;SDS011;8713;48.388;10.928;2024-03-02T13:45:24;12.90;;;7.22;;
17193;SDS011;8713;48.388;10.928;2024-03-02T13:46:54;12.30;;;7.22;;
17193;SDS011;8713;48.388;10.928;2024-03-02T13:48:23;14.18;;;7.43;;
17193;SDS011;8713;48.388;10.928;2024-03-02T13:49:54;14.68;;;7.45;;
17193;SDS011;8713;48.388;10.928;2024-03-02T13:51:24;13.65;;;7.55;;
17193;SDS011;8713;48.388;10.928;2024-03-02T13:52:54;13.75;;;7.07;;
17193;SDS011;8713;48.388;10.928;2024-03-02T13:54:24;12.93;;;7.97;;
17193;SDS011;8713;48.388;10.928;2024-03-02T13:55:53;12.13;;;6.82;;
17193;SDS011;8713;48.388;10.928;2024-03-02T13:57:23;11.27;;;6.45;;
17193;SDS011;8713;48.388;10.928;2024-03-02T13:58:52;15.77;;;7.85;;
17193;SDS011;8713;48.388;10.928;2024-03-02T14:00:22;15.18;;;8.02;;
17193;SDS011;8713;48.388;10.928;2024-03-02T14:01:51;15.00;;;7.72;;
17193;SDS011;8713;48.388;10.928;2024-03-02T14:03:21;14.30;;;7.95;;
17193;SDS011;8713;48.388;10.928;2024-03-02T14:04:50;9.05;;;5.53;;
17193;SDS011;8713;48.388;10.928;2024-03-02T14:06:20;12.55;;;6.55;;
17193;SDS011;8713;48.388;10.928;2024-03-02T14:07:50;12.48;;;6.18;;
17193;SDS011;8713;48.388;10.928;2024-03-02T14:09:19;8.35;;;5.22;;
17193;SDS011;8713;48.388;10.928;2024-03-02T14:10:49;11.60;;;6.35;;
17193;SDS011;8713;48.388;10.928;2024-03-02T14:12:19;10.70;;;5.82;;
17193;SDS011;8713;48.388;10.928;2024-03-02T14:13:48;10.93;;;5.70;;
17193;SDS011;8713;48.388;10.928;2024-03-02T14:15:23;8.20;;;4.65;;
17193;SDS011;8713;48.388;10.928;2024-03-02T14:16:53;10.20;;;5.32;;
17193;SDS011;8713;48.388;10.928;2024-03-02T14:18:24;11.05;;;5.45;;
17193;SDS011;8713;48.388;10.928;2024-03-02T14:19:54;9.10;;;5.13;;
17193;SDS011;8713;48.388;10.928;2024-03-02T14:21:23;10.85;;;5.35;;
17193;SDS011;8713;48.388;10.928;2024-03-02T14:22:53;10.38;;;5.63;;
17193;SDS011;8713;48.388;10.928;2024-03-02T14:24:22;7.97;;;4.88;;
17193;SDS011;8713;48.388;10.928;2024-03-02T14:25:55;10.57;;;6.55;;
17193;SDS011;8713;48.388;10.928;2024-03-02T14:27:24;11.07;;;6.00;;
17193;SDS011;8713;48.388;10.928;2024-03-02T14:28:54;9.15;;;5.07;;
17193;SDS011;8713;48.388;10.928;2024-03-02T14:30:24;10.07;;;5.80;;
17193;SDS011;8713;48.388;10.928;2024-03-02T14:31:54;9.38;;;5.38;;
17193;SDS011;8713;48.388;10.928;2024-03-02T14:33:23;7.78;;;4.28;;
17193;SDS011;8713;48.388;10.928;2024-03-02T14:34:53;9.90;;;4.88;;
17193;SDS011;8713;48.388;10.928;2024-03-02T14:36:22;8.07;;;4.97;;
17193;SDS011;8713;48.388;10.928;2024-03-02T14:37:52;8.90;;;4.85;;
17193;SDS011;8713;48.388;10.928;2024-03-02T14:39:22;8.20;;;4.53;;
17193;SDS011;8713;48.388;10.928;2024-03-02T14:40:52;8.80;;;4.82;;
17193;SDS011;8713;48.388;10.928;2024-03-02T14:42:22;7.15;;;4.25;;
17193;SDS011;8713;48.388;10.928;2024-03-02T14:43:51;8.88;;;4.32;;
17193;SDS011;8713;48.388;10.928;2024-03-02T14:45:21;5.57;;;3.28;;
17193;SDS011;8713;48.388;10.928;2024-03-02T14:46:50;8.85;;;5.05;;
17193;SDS011;8713;48.388;10.928;2024-03-02T14:48:20;7.85;;;4.60;;
17193;SDS011;8713;48.388;10.928;2024-03-02T14:49:50;8.23;;;4.95;;
17193;SDS011;8713;48.388;10.928;2024-03-02T14:51:19;9.15;;;4.45;;
17193;SDS011;8713;48.388;10.928;2024-03-02T14:52:49;9.50;;;5.07;;
17193;SDS011;8713;48.388;10.928;2024-03-02T14:54:18;8.27;;;4.55;;
17193;SDS011;8713;48.388;10.928;2024-03-02T14:55:48;8.95;;;4.85;;
17193;SDS011;8713;48.388;10.928;2024-03-02T14:57:19;7.80;;;4.25;;
17193;SDS011;8713;48.388;10.928;2024-03-02T14:58:48;8.70;;;4.03;;
17193;SDS011;8713;48.388;10.928;2024-03-02T15:00:18;5.45;;;2.95;;
17193;SDS011;8713;48.388;10.928;2024-03-02T15:01:48;5.47;;;3.13;;
17193;SDS011;8713;48.388;10.928;2024-03-02T15:02:57;6.13;;;3.47;;
17193;SDS011;8713;48.388;10.928;2024-03-02T15:04:26;6.13;;;3.35;;
17193;SDS011;8713;48.388;10.928;2024-03-02T15:05:55;5.95;;;3.47;;
17193;SDS011;8713;48.388;10.928;2024-03-02T15:07:24;6.05;;;3.50;;
17193;SDS011;8713;48.388;10.928;2024-03-02T15:08:54;7.90;;;3.80;;
17193;SDS011;8713;48.388;10.928;2024-03-02T15:10:24;8.20;;;4.20;;
17193;SDS011;8713;48.388;10.928;2024-03-02T15:11:54;8.15;;;4.30;;
17193;SDS011;8713;48.388;10.928;2024-03-02T15:13:23;7.15;;;4.00;;
17193;SDS011;8713;48.388;10.928;2024-03-02T15:14:55;7.28;;;3.88;;
17193;SDS011;8713;48.388;10.928;2024-03-02T15:16:24;6.70;;;3.88;;
17193;SDS011;8713;48.388;10.928;2024-03-02T15:17:53;6.93;;;3.67;;
17193;SDS011;8713;48.388;10.928;2024-03-02T15:19:23;7.20;;;3.72;;
17193;SDS011;8713;48.388;10.928;2024-03-02T15:20:53;7.32;;;4.35;;
17193;SDS011;8713;48.388;10.928;2024-03-02T15:22:03;8.00;;;4.50;;
17193;SDS011;8713;48.388;10.928;2024-03-02T15:23:18;8.63;;;3.95;;
17193;SDS011;8713;48.388;10.928;2024-03-02T15:24:46;7.28;;;3.65;;
17193;SDS011;8713;48.388;10.928;2024-03-02T15:26:15;7.35;;;4.00;;
17193;SDS011;8713;48.388;10.928;2024-03-02T15:27:45;6.30;;;3.38;;
17193;SDS011;8713;48.388;10.928;2024-03-02T15:29:13;8.20;;;3.92;;
17193;SDS011;8713;48.388;10.928;2024-03-02T15:30:41;10.13;;;4.57;;
17193;SDS011;8713;48.388;10.928;2024-03-02T15:32:09;6.50;;;4.07;;
17193;SDS011;8713;48.388;10.928;2024-03-02T15:33:24;7.28;;;4.28;;
17193;SDS011;8713;48.388;10.928;2024-03-02T15:34:53;11.15;;;5.65;;
17193;SDS011;8713;48.388;10.928;2024-03-02T15:36:21;8.63;;;4.22;;
17193;SDS011;8713;48.388;10.928;2024-03-02T15:37:49;8.35;;;4.65;;
17193;SDS011;8713;48.388;10.928;2024-03-02T15:39:17;7.95;;;4.68;;
17193;SDS011;8713;48.388;10.928;2024-03-02T15:40:46;7.95;;;4.45;;
17193;SDS011;8713;48.388;10.928;2024-03-02T15:42:14;8.05;;;4.85;;
17193;SDS011;8713;48.388;10.928;2024-03-02T15:43:43;8.18;;;4.65;;
17193;SDS011;8713;48.388;10.928;2024-03-02T15:45:11;10.18;;;4.55;;
17193;SDS011;8713;48.388;10.928;2024-03-02T15:46:39;8.48;;;4.50;;
17193;SDS011;8713;48.388;10.928;2024-03-02T15:48:07;7.07;;;4.10;;
17193;SDS011;8713;48.388;10.928;2024-03-02T15:49:36;7.55;;;3.90;;
17193;SDS011;8713;48.388;10.928;2024-03-02T15:51:04;7.03;;;3.97;;
17193;SDS011;8713;48.388;10.928;2024-03-02T15:52:32;6.72;;;3.97;;
17193;SDS011;8713;48.388;10.928;2024-03-02T15:53:48;9.30;;;4.70;;
17193;SDS011;8713;48.388;10.928;2024-03-02T15:54:57;8.68;;;4.78;;
17193;SDS011;8713;48.388;10.928;2024-03-02T15:56:07;8.38;;;4.57;;
17193;SDS011;8713;48.388;10.928;2024-03-02T15:57:16;8.48;;;4.63;;
17193;SDS011;8713;48.388;10.928;2024-03-02T15:58:26;9.60;;;4.70;;
17193;SDS011;8713;48.388;10.928;2024-03-02T15:59:35;8.65;;;4.88;;
17193;SDS011;8713;48.388;10.928;2024-03-02T16:00:45;8.70;;;4.93;;
17193;SDS011;8713;48.388;10.928;2024-03-02T16:02:13;11.10;;;4.72;;
17193;SDS011;8713;48.388;10.928;2024-03-02T16:03:42;9.55;;;4.85;;
17193;SDS011;8713;48.388;10.928;2024-03-02T16:05:10;10.65;;;5.03;;
17193;SDS011;8713;48.388;10.928;2024-03-02T16:06:38;8.98;;;4.68;;
17193;SDS011;8713;48.388;10.928;2024-03-02T16:08:06;8.52;;;5.30;;
17193;SDS011;8713;48.388;10.928;2024-03-02T16:09:34;9.70;;;5.18;;
17193;SDS011;8713;48.388;10.928;2024-03-02T16:11:03;10.15;;;5.85;;
17193;SDS011;8713;48.388;10.928;2024-03-02T16:12:31;12.73;;;5.40;;
17193;SDS011;8713;48.388;10.928;2024-03-02T16:13:40;10.13;;;5.47;;
17193;SDS011;8713;48.388;10.928;2024-03-02T16:14:50;10.27;;;5.60;;
17193;SDS011;8713;48.388;10.928;2024-03-02T16:16:00;9.38;;;5.18;;
17193;SDS011;8713;48.388;10.928;2024-03-02T16:17:29;11.05;;;5.45;;
17193;SDS011;8713;48.388;10.928;2024-03-02T16:18:57;8.73;;;4.85;;
17193;SDS011;8713;48.388;10.928;2024-03-02T16:20:26;9.10;;;5.03;;
17193;SDS011;8713;48.388;10.928;2024-03-02T16:21:54;11.95;;;6.47;;
17193;SDS011;8713;48.388;10.928;2024-03-02T16:23:23;14.43;;;7.85;;
17193;SDS011;8713;48.388;10.928;2024-03-02T16:24:51;13.35;;;7.80;;
17193;SDS011;8713;48.388;10.928;2024-03-02T16:26:19;15.00;;;8.43;;
17193;SDS011;8713;48.388;10.928;2024-03-02T16:27:47;14.75;;;7.95;;
17193;SDS011;8713;48.388;10.928;2024-03-02T16:28:57;12.77;;;8.05;;
17193;SDS011;8713;48.388;10.928;2024-03-02T16:30:26;13.60;;;7.57;;
17193;SDS011;8713;48.388;10.928;2024-03-02T16:31:55;17.00;;;8.85;;
17193;SDS011;8713;48.388;10.928;2024-03-02T16:33:23;14.85;;;8.30;;
17193;SDS011;8713;48.388;10.928;2024-03-02T16:34:52;12.80;;;7.00;;
17193;SDS011;8713;48.388;10.928;2024-03-02T16:36:20;13.18;;;6.88;;
17193;SDS011;8713;48.388;10.928;2024-03-02T16:37:49;12.73;;;6.85;;
17193;SDS011;8713;48.388;10.928;2024-03-02T16:39:17;13.02;;;6.97;;
17193;SDS011;8713;48.388;10.928;2024-03-02T16:40:46;12.18;;;7.22;;
17193;SDS011;8713;48.388;10.928;2024-03-02T16:42:15;13.55;;;6.97;;
17193;SDS011;8713;48.388;10.928;2024-03-02T16:43:44;11.27;;;6.78;;
17193;SDS011;8713;48.388;10.928;2024-03-02T16:45:13;12.60;;;6.93;;
17193;SDS011;8713;48.388;10.928;2024-03-02T16:46:41;11.85;;;6.80;;
17193;SDS011;8713;48.388;10.928;2024-03-02T16:48:10;14.18;;;6.93;;
17193;SDS011;8713;48.388;10.928;2024-03-02T16:49:38;14.32;;;7.32;;
17193;SDS011;8713;48.388;10.928;2024-03-02T16:51:06;15.10;;;6.93;;
17193;SDS011;8713;48.388;10.928;2024-03-02T16:52:35;14.65;;;7.70;;
17193;SDS011;8713;48.388;10.928;2024-03-02T16:54:03;13.25;;;6.35;;
17193;SDS011;8713;48.388;10.928;2024-03-02T16:55:31;13.88;;;7.43;;
17193;SDS011;8713;48.388;10.928;2024-03-02T16:57:00;15.15;;;7.60;;
17193;SDS011;8713;48.388;10.928;2024-03-02T16:58:28;13.48;;;7.20;;
17193;SDS011;8713;48.388;10.928;2024-03-02T16:59:56;15.35;;;6.90;;
17193;SDS011;8713;48.388;10.928;2024-03-02T17:01:25;13.38;;;7.20;;
17193;SDS011;8713;48.388;10.928;2024-03-02T17:02:54;13.80;;;7.72;;
17193;SDS011;8713;48.388;10.928;2024-03-02T17:04:22;17.10;;;8.30;;
17193;SDS011;8713;48.388;10.928;2024-03-02T17:05:50;17.25;;;8.38;;
17193;SDS011;8713;48.388;10.928;2024-03-02T17:07:19;14.50;;;7.00;;
17193;SDS011;8713;48.388;10.928;2024-03-02T17:08:47;12.45;;;6.75;;
17193;SDS011;8713;48.388;10.928;2024-03-02T17:10:17;13.02;;;7.20;;
17193;SDS011;8713;48.388;10.928;2024-03-02T17:11:46;18.90;;;9.23;;
17193;SDS011;8713;48.388;10.928;2024-03-02T17:13:14;14.70;;;7.15;;
17193;SDS011;8713;48.388;10.928;2024-03-02T17:14:43;15.55;;;7.32;;
17193;SDS011;8713;48.388;10.928;2024-03-02T17:16:12;14.48;;;7.55;;
17193;SDS011;8713;48.388;10.928;2024-03-02T17:17:42;15.68;;;7.78;;
17193;SDS011;8713;48.388;10.928;2024-03-02T17:19:10;15.15;;;7.82;;
17193;SDS011;8713;48.388;10.928;2024-03-02T17:20:38;14.27;;;7.72;;
17193;SDS011;8713;48.388;10.928;2024-03-02T17:22:07;13.98;;;6.90;;
17193;SDS011;8713;48.388;10.928;2024-03-02T17:23:35;14.00;;;7.55;;
17193;SDS011;8713;48.388;10.928;2024-03-02T17:25:04;14.23;;;6.95;;
17193;SDS011;8713;48.388;10.928;2024-03-02T17:26:32;17.65;;;9.05;;
17193;SDS011;8713;48.388;10.928;2024-03-02T17:28:20;25.77;;;14.10;;
17193;SDS011;8713;48.388;10.928;2024-03-02T17:29:53;25.00;;;13.63;;
17193;SDS011;8713;48.388;10.928;2024-03-02T17:31:21;22.17;;;13.18;;
17193;SDS011;8713;48.388;10.928;2024-03-02T17:32:49;19.73;;;10.80;;
17193;SDS011;8713;48.388;10.928;2024-03-02T17:34:18;35.38;;;22.98;;
17193;SDS011;8713;48.388;10.928;2024-03-02T17:35:46;26.92;;;18.13;;
17193;SDS011;8713;48.388;10.928;2024-03-02T17:37:17;18.20;;;9.73;;
17193;SDS011;8713;48.388;10.928;2024-03-02T17:38:45;17.10;;;9.75;;
17193;SDS011;8713;48.388;10.928;2024-03-02T17:40:13;15.63;;;8.45;;
17193;SDS011;8713;48.388;10.928;2024-03-02T17:41:42;18.50;;;9.52;;
17193;SDS011;8713;48.388;10.928;2024-03-02T17:43:10;15.88;;;7.95;;
17193;SDS011;8713;48.388;10.928;2024-03-02T17:44:39;15.63;;;8.30;;
17193;SDS011;8713;48.388;10.928;2024-03-02T17:46:08;17.60;;;8.50;;
17193;SDS011;8713;48.388;10.928;2024-03-02T17:47:36;19.10;;;10.77;;
17193;SDS011;8713;48.388;10.928;2024-03-02T17:49:06;20.90;;;10.50;;
17193;SDS011;8713;48.388;10.928;2024-03-02T17:50:34;19.73;;;10.35;;
17193;SDS011;8713;48.388;10.928;2024-03-02T17:52:02;18.65;;;8.80;;
17193;SDS011;8713;48.388;10.928;2024-03-02T17:53:31;15.68;;;8.45;;
17193;SDS011;8713;48.388;10.928;2024-03-02T17:54:59;14.32;;;8.98;;
17193;SDS011;8713;48.388;10.928;2024-03-02T17:56:28;18.77;;;9.93;;
17193;SDS011;8713;48.388;10.928;2024-03-02T17:57:56;18.98;;;9.77;;
17193;SDS011;8713;48.388;10.928;2024-03-02T17:59:25;16.83;;;9.18;;
17193;SDS011;8713;48.388;10.928;2024-03-02T18:00:34;16.90;;;9.00;;
17193;SDS011;8713;48.388;10.928;2024-03-02T18:02:02;21.58;;;12.10;;
17193;SDS011;8713;48.388;10.928;2024-03-02T18:03:31;21.98;;;10.90;;
17193;SDS011;8713;48.388;10.928;2024-03-02T18:04:59;20.75;;;10.93;;
17193;SDS011;8713;48.388;10.928;2024-03-02T18:06:27;16.50;;;9.05;;
17193;SDS011;8713;48.388;10.928;2024-03-02T18:07:55;22.02;;;10.85;;
17193;SDS011;8713;48.388;10.928;2024-03-02T18:09:23;17.15;;;8.05;;
17193;SDS011;8713;48.388;10.928;2024-03-02T18:10:51;20.20;;;9.05;;
17193;SDS011;8713;48.388;10.928;2024-03-02T18:12:19;16.95;;;8.23;;
17193;SDS011;8713;48.388;10.928;2024-03-02T18:13:48;16.73;;;8.27;;
17193;SDS011;8713;48.388;10.928;2024-03-02T18:15:16;18.55;;;8.68;;
17193;SDS011;8713;48.388;10.928;2024-03-02T18:16:44;17.65;;;9.25;;
17193;SDS011;8713;48.388;10.928;2024-03-02T18:18:12;18.23;;;9.15;;
17193;SDS011;8713;48.388;10.928;2024-03-02T18:19:41;18.58;;;9.30;;
17193;SDS011;8713;48.388;10.928;2024-03-02T18:21:09;19.20;;;9.40;;
17193;SDS011;8713;48.388;10.928;2024-03-02T18:22:38;19.13;;;9.13;;
17193;SDS011;8713;48.388;10.928;2024-03-02T18:24:07;19.10;;;9.05;;
17193;SDS011;8713;48.388;10.928;2024-03-02T18:25:36;18.67;;;8.55;;
17193;SDS011;8713;48.388;10.928;2024-03-02T18:27:04;15.70;;;8.10;;
17193;SDS011;8713;48.388;10.928;2024-03-02T18:28:32;18.20;;;8.70;;